sensor_id;sensor_type;location;lat;lon;timestamp;P1;durP1;ratioP1;P2;durP2;ratioP2
13795;SDS011;40911;51.552;9.874;2023-12-20T00:01:58;4.13;;;3.83;;
13795;SDS011;40911;51.552;9.874;2023-12-20T00:04:21;5.28;;;4.70;;
13795;SDS011;40911;51.552;9.874;2023-12-20T00:06:42;5.85;;;4.82;;
13795;SDS011;40911;51.552;9.874;2023-12-20T00:09:04;5.63;;;4.50;;
13795;SDS011;40911;51.552;9.874;2023-12-20T00:11:26;4.05;;;3.75;;
13795;SDS011;40911;51.552;9.874;2023-12-20T00:13:47;5.00;;;4.50;;
13795;SDS011;40911;51.552;9.874;2023-12-20T00:16:09;4.95;;;4.43;;
13795;SDS011;40911;51.552;9.874;2023-12-20T00:18:31;4.60;;;3.85;;
13795;SDS011;40911;51.552;9.874;2023-12-20T00:20:54;4.43;;;4.03;;
13795;SDS011;40911;51.552;9.874;2023-12-20T00:23:15;5.57;;;4.07;;
13795;SDS011;40911;51.552;9.874;2023-12-20T00:27:58;3.95;;;3.65;;
13795;SDS011;40911;51.552;9.874;2023-12-20T00:30:20;3.97;;;3.63;;
13795;SDS011;40911;51.552;9.874;2023-12-20T00:32:42;4.38;;;4.05;;
13795;SDS011;40911;51.552;9.874;2023-12-20T00:35:07;5.22;;;4.50;;
13795;SDS011;40911;51.552;9.874;2023-12-20T00:37:30;4.60;;;4.20;;
13795;SDS011;40911;51.552;9.874;2023-12-20T00:39:51;5.07;;;4.50;;
13795;SDS011;40911;51.552;9.874;2023-12-20T00:42:13;5.13;;;4.63;;
13795;SDS011;40911;51.552;9.874;2023-12-20T00:44:35;7.03;;;4.75;;
13795;SDS011;40911;51.552;9.874;2023-12-20T00:46:57;4.93;;;4.53;;
13795;SDS011;40911;51.552;9.874;2023-12-20T00:49:18;5.18;;;4.30;;
13795;SDS011;40911;51.552;9.874;2023-12-20T00:51:40;4.80;;;4.38;;
13795;SDS011;40911;51.552;9.874;2023-12-20T00:54:03;4.97;;;4.50;;
13795;SDS011;40911;51.552;9.874;2023-12-20T00:56:25;4.43;;;4.03;;
13795;SDS011;40911;51.552;9.874;2023-12-20T00:58:46;4.95;;;4.22;;
13795;SDS011;40911;51.552;9.874;2023-12-20T01:01:08;4.82;;;4.43;;
13795;SDS011;40911;51.552;9.874;2023-12-20T01:03:29;4.47;;;3.92;;
13795;SDS011;40911;51.552;9.874;2023-12-20T01:05:51;4.53;;;4.13;;
13795;SDS011;40911;51.552;9.874;2023-12-20T01:08:13;3.88;;;3.58;;
13795;SDS011;40911;51.552;9.874;2023-12-20T01:10:36;4.60;;;4.20;;
13795;SDS011;40911;51.552;9.874;2023-12-20T01:12:57;4.45;;;4.05;;
13795;SDS011;40911;51.552;9.874;2023-12-20T01:15:18;4.30;;;3.93;;
13795;SDS011;40911;51.552;9.874;2023-12-20T01:17:40;4.43;;;4.13;;
13795;SDS011;40911;51.552;9.874;2023-12-20T01:20:01;5.43;;;4.20;;
13795;SDS011;40911;51.552;9.874;2023-12-20T01:22:23;4.57;;;4.18;;
13795;SDS011;40911;51.552;9.874;2023-12-20T01:24:45;4.65;;;4.20;;
13795;SDS011;40911;51.552;9.874;2023-12-20T01:27:08;5.00;;;4.40;;
13795;SDS011;40911;51.552;9.874;2023-12-20T01:29:29;5.20;;;4.70;;
13795;SDS011;40911;51.552;9.874;2023-12-20T01:31:51;5.10;;;4.60;;
13795;SDS011;40911;51.552;9.874;2023-12-20T01:34:13;6.55;;;4.85;;
13795;SDS011;40911;51.552;9.874;2023-12-20T01:36:34;5.40;;;4.90;;
13795;SDS011;40911;51.552;9.874;2023-12-20T01:38:56;5.30;;;4.80;;
13795;SDS011;40911;51.552;9.874;2023-12-20T01:41:17;6.25;;;4.90;;
13795;SDS011;40911;51.552;9.874;2023-12-20T01:43:40;7.57;;;4.93;;
13795;SDS011;40911;51.552;9.874;2023-12-20T01:46:02;5.88;;;4.97;;
13795;SDS011;40911;51.552;9.874;2023-12-20T01:48:24;5.88;;;5.15;;
13795;SDS011;40911;51.552;9.874;2023-12-20T01:50:47;5.43;;;4.90;;
13795;SDS011;40911;51.552;9.874;2023-12-20T01:53:09;6.15;;;4.88;;
13795;SDS011;40911;51.552;9.874;2023-12-20T01:55:33;7.63;;;5.30;;
13795;SDS011;40911;51.552;9.874;2023-12-20T01:57:57;5.13;;;4.65;;
13795;SDS011;40911;51.552;9.874;2023-12-20T02:00:21;5.57;;;5.00;;
13795;SDS011;40911;51.552;9.874;2023-12-20T02:02:46;5.35;;;4.85;;
13795;SDS011;40911;51.552;9.874;2023-12-20T02:05:09;5.65;;;4.85;;
13795;SDS011;40911;51.552;9.874;2023-12-20T02:07:33;5.10;;;4.60;;
13795;SDS011;40911;51.552;9.874;2023-12-20T02:09:55;4.90;;;4.40;;
13795;SDS011;40911;51.552;9.874;2023-12-20T02:12:17;4.72;;;4.18;;
13795;SDS011;40911;51.552;9.874;2023-12-20T02:14:39;4.72;;;4.18;;
13795;SDS011;40911;51.552;9.874;2023-12-20T02:17:02;5.03;;;3.70;;
13795;SDS011;40911;51.552;9.874;2023-12-20T02:19:24;4.07;;;3.67;;
13795;SDS011;40911;51.552;9.874;2023-12-20T02:21:47;3.72;;;3.42;;
13795;SDS011;40911;51.552;9.874;2023-12-20T02:24:09;3.75;;;3.45;;
13795;SDS011;40911;51.552;9.874;2023-12-20T02:26:30;3.63;;;3.33;;
13795;SDS011;40911;51.552;9.874;2023-12-20T02:28:53;3.38;;;3.08;;
13795;SDS011;40911;51.552;9.874;2023-12-20T02:31:15;4.07;;;3.60;;
13795;SDS011;40911;51.552;9.874;2023-12-20T02:33:37;5.20;;;3.70;;
13795;SDS011;40911;51.552;9.874;2023-12-20T02:35:59;7.03;;;3.47;;
13795;SDS011;40911;51.552;9.874;2023-12-20T02:38:22;3.85;;;3.42;;
13795;SDS011;40911;51.552;9.874;2023-12-20T02:40:44;4.80;;;3.33;;
13795;SDS011;40911;51.552;9.874;2023-12-20T02:43:05;4.15;;;3.60;;
13795;SDS011;40911;51.552;9.874;2023-12-20T02:45:27;5.75;;;3.58;;
13795;SDS011;40911;51.552;9.874;2023-12-20T02:47:49;6.10;;;3.53;;
13795;SDS011;40911;51.552;9.874;2023-12-20T02:50:10;6.10;;;4.05;;
13795;SDS011;40911;51.552;9.874;2023-12-20T02:52:32;4.88;;;4.03;;
13795;SDS011;40911;51.552;9.874;2023-12-20T02:54:55;5.25;;;4.05;;
13795;SDS011;40911;51.552;9.874;2023-12-20T02:57:16;4.65;;;3.58;;
13795;SDS011;40911;51.552;9.874;2023-12-20T02:59:38;7.55;;;4.13;;
13795;SDS011;40911;51.552;9.874;2023-12-20T03:02:01;5.80;;;3.60;;
13795;SDS011;40911;51.552;9.874;2023-12-20T03:04:22;5.85;;;3.58;;
13795;SDS011;40911;51.552;9.874;2023-12-20T03:06:44;8.23;;;3.75;;
13795;SDS011;40911;51.552;9.874;2023-12-20T03:09:05;9.43;;;3.63;;
13795;SDS011;40911;51.552;9.874;2023-12-20T03:11:28;4.22;;;3.13;;
13795;SDS011;40911;51.552;9.874;2023-12-20T03:13:49;6.65;;;3.08;;
13795;SDS011;40911;51.552;9.874;2023-12-20T03:16:11;5.28;;;3.17;;
13795;SDS011;40911;51.552;9.874;2023-12-20T03:18:36;4.78;;;3.40;;
13795;SDS011;40911;51.552;9.874;2023-12-20T03:20:58;3.20;;;2.95;;
13795;SDS011;40911;51.552;9.874;2023-12-20T03:23:20;3.28;;;2.90;;
13795;SDS011;40911;51.552;9.874;2023-12-20T03:25:41;4.53;;;3.10;;
13795;SDS011;40911;51.552;9.874;2023-12-20T03:28:04;5.30;;;2.70;;
13795;SDS011;40911;51.552;9.874;2023-12-20T03:30:26;6.28;;;3.03;;
13795;SDS011;40911;51.552;9.874;2023-12-20T03:32:48;12.60;;;3.72;;
13795;SDS011;40911;51.552;9.874;2023-12-20T03:35:10;9.77;;;3.00;;
13795;SDS011;40911;51.552;9.874;2023-12-20T03:37:31;4.93;;;2.80;;
13795;SDS011;40911;51.552;9.874;2023-12-20T03:39:53;4.57;;;3.03;;
13795;SDS011;40911;51.552;9.874;2023-12-20T03:42:15;7.60;;;2.90;;
13795;SDS011;40911;51.552;9.874;2023-12-20T03:44:39;6.20;;;2.92;;
13795;SDS011;40911;51.552;9.874;2023-12-20T03:47:01;4.88;;;3.10;;
13795;SDS011;40911;51.552;9.874;2023-12-20T03:49:23;6.70;;;3.25;;
13795;SDS011;40911;51.552;9.874;2023-12-20T03:51:44;3.15;;;2.83;;
13795;SDS011;40911;51.552;9.874;2023-12-20T03:56:27;4.53;;;2.88;;
13795;SDS011;40911;51.552;9.874;2023-12-20T03:58:49;4.07;;;2.72;;
13795;SDS011;40911;51.552;9.874;2023-12-20T04:01:12;3.30;;;3.00;;
13795;SDS011;40911;51.552;9.874;2023-12-20T04:03:34;4.38;;;2.67;;
13795;SDS011;40911;51.552;9.874;2023-12-20T04:05:55;5.28;;;2.95;;
13795;SDS011;40911;51.552;9.874;2023-12-20T04:08:17;7.70;;;2.90;;
13795;SDS011;40911;51.552;9.874;2023-12-20T04:10:38;3.65;;;3.20;;
13795;SDS011;40911;51.552;9.874;2023-12-20T04:15:22;5.38;;;3.10;;
13795;SDS011;40911;51.552;9.874;2023-12-20T04:17:45;7.00;;;3.00;;
13795;SDS011;40911;51.552;9.874;2023-12-20T04:20:07;7.75;;;3.40;;
13795;SDS011;40911;51.552;9.874;2023-12-20T04:22:29;4.25;;;3.03;;
13795;SDS011;40911;51.552;9.874;2023-12-20T04:24:50;5.30;;;3.10;;
13795;SDS011;40911;51.552;9.874;2023-12-20T04:27:12;3.97;;;3.47;;
13795;SDS011;40911;51.552;9.874;2023-12-20T04:29:34;6.80;;;3.33;;
13795;SDS011;40911;51.552;9.874;2023-12-20T04:31:55;5.10;;;3.20;;
13795;SDS011;40911;51.552;9.874;2023-12-20T04:34:20;8.35;;;3.30;;
13795;SDS011;40911;51.552;9.874;2023-12-20T04:36:42;5.75;;;3.53;;
13795;SDS011;40911;51.552;9.874;2023-12-20T04:41:25;6.22;;;3.13;;
13795;SDS011;40911;51.552;9.874;2023-12-20T04:43:47;7.57;;;3.20;;
13795;SDS011;40911;51.552;9.874;2023-12-20T04:46:09;5.32;;;3.00;;
13795;SDS011;40911;51.552;9.874;2023-12-20T04:48:31;6.10;;;2.90;;
13795;SDS011;40911;51.552;9.874;2023-12-20T04:50:54;4.63;;;2.92;;
13795;SDS011;40911;51.552;9.874;2023-12-20T04:53:15;6.03;;;3.30;;
13795;SDS011;40911;51.552;9.874;2023-12-20T04:57:59;7.78;;;3.67;;
13795;SDS011;40911;51.552;9.874;2023-12-20T05:00:20;5.43;;;3.40;;
13795;SDS011;40911;51.552;9.874;2023-12-20T05:02:42;9.20;;;3.30;;
13795;SDS011;40911;51.552;9.874;2023-12-20T05:07:32;4.75;;;3.30;;
13795;SDS011;40911;51.552;9.874;2023-12-20T05:09:54;4.30;;;3.00;;
13795;SDS011;40911;51.552;9.874;2023-12-20T05:12:16;6.75;;;2.85;;
13795;SDS011;40911;51.552;9.874;2023-12-20T05:14:39;6.07;;;3.03;;
13795;SDS011;40911;51.552;9.874;2023-12-20T05:17:00;9.82;;;3.50;;
13795;SDS011;40911;51.552;9.874;2023-12-20T05:19:23;3.80;;;3.47;;
13795;SDS011;40911;51.552;9.874;2023-12-20T05:21:45;7.38;;;2.90;;
13795;SDS011;40911;51.552;9.874;2023-12-20T05:24:08;9.25;;;3.20;;
13795;SDS011;40911;51.552;9.874;2023-12-20T05:26:29;8.20;;;3.35;;
13795;SDS011;40911;51.552;9.874;2023-12-20T05:28:51;7.55;;;3.67;;
13795;SDS011;40911;51.552;9.874;2023-12-20T05:31:12;4.13;;;2.80;;
13795;SDS011;40911;51.552;9.874;2023-12-20T05:33:34;7.35;;;3.30;;
13795;SDS011;40911;51.552;9.874;2023-12-20T05:35:57;6.63;;;3.13;;
13795;SDS011;40911;51.552;9.874;2023-12-20T05:38:19;7.72;;;2.88;;
13795;SDS011;40911;51.552;9.874;2023-12-20T05:40:42;8.30;;;2.92;;
13795;SDS011;40911;51.552;9.874;2023-12-20T05:43:04;10.60;;;3.00;;
13795;SDS011;40911;51.552;9.874;2023-12-20T05:45:25;7.22;;;4.13;;
13795;SDS011;40911;51.552;9.874;2023-12-20T05:50:09;5.28;;;2.72;;
13795;SDS011;40911;51.552;9.874;2023-12-20T05:54:52;5.72;;;3.50;;
13795;SDS011;40911;51.552;9.874;2023-12-20T05:57:15;11.77;;;3.80;;
13795;SDS011;40911;51.552;9.874;2023-12-20T05:59:36;9.27;;;3.70;;
13795;SDS011;40911;51.552;9.874;2023-12-20T06:04:19;6.20;;;3.28;;
13795;SDS011;40911;51.552;9.874;2023-12-20T06:09:03;9.45;;;2.97;;
13795;SDS011;40911;51.552;9.874;2023-12-20T06:13:48;6.75;;;3.22;;
13795;SDS011;40911;51.552;9.874;2023-12-20T06:16:12;4.20;;;3.00;;
13795;SDS011;40911;51.552;9.874;2023-12-20T06:20:56;5.57;;;3.10;;
13795;SDS011;40911;51.552;9.874;2023-12-20T06:23:18;4.10;;;2.92;;
13795;SDS011;40911;51.552;9.874;2023-12-20T06:25:40;6.78;;;3.40;;
13795;SDS011;40911;51.552;9.874;2023-12-20T06:28:01;10.13;;;3.47;;
13795;SDS011;40911;51.552;9.874;2023-12-20T06:30:24;6.43;;;3.28;;
13795;SDS011;40911;51.552;9.874;2023-12-20T06:32:47;4.03;;;3.15;;
13795;SDS011;40911;51.552;9.874;2023-12-20T06:35:09;8.00;;;3.53;;
13795;SDS011;40911;51.552;9.874;2023-12-20T06:37:30;10.80;;;3.42;;
13795;SDS011;40911;51.552;9.874;2023-12-20T06:39:52;7.10;;;3.08;;
13795;SDS011;40911;51.552;9.874;2023-12-20T06:42:14;7.28;;;3.17;;
13795;SDS011;40911;51.552;9.874;2023-12-20T06:44:35;9.05;;;3.67;;
13795;SDS011;40911;51.552;9.874;2023-12-20T06:46:58;7.80;;;3.45;;
13795;SDS011;40911;51.552;9.874;2023-12-20T06:49:20;7.53;;;3.17;;
13795;SDS011;40911;51.552;9.874;2023-12-20T06:51:42;8.10;;;3.20;;
13795;SDS011;40911;51.552;9.874;2023-12-20T06:54:03;3.92;;;3.30;;
13795;SDS011;40911;51.552;9.874;2023-12-20T06:56:25;10.13;;;3.38;;
13795;SDS011;40911;51.552;9.874;2023-12-20T06:58:47;6.22;;;3.42;;
13795;SDS011;40911;51.552;9.874;2023-12-20T07:01:10;7.97;;;3.60;;
13795;SDS011;40911;51.552;9.874;2023-12-20T07:03:34;10.13;;;3.42;;
13795;SDS011;40911;51.552;9.874;2023-12-20T07:05:55;7.90;;;3.50;;
13795;SDS011;40911;51.552;9.874;2023-12-20T07:08:17;11.68;;;3.42;;
13795;SDS011;40911;51.552;9.874;2023-12-20T07:10:39;15.95;;;3.75;;
13795;SDS011;40911;51.552;9.874;2023-12-20T07:13:01;10.68;;;3.65;;
13795;SDS011;40911;51.552;9.874;2023-12-20T07:15:23;12.77;;;4.20;;
13795;SDS011;40911;51.552;9.874;2023-12-20T07:17:46;10.50;;;3.10;;
13795;SDS011;40911;51.552;9.874;2023-12-20T07:20:10;9.80;;;4.15;;
13795;SDS011;40911;51.552;9.874;2023-12-20T07:22:33;11.45;;;3.40;;
13795;SDS011;40911;51.552;9.874;2023-12-20T07:24:54;4.55;;;3.15;;
13795;SDS011;40911;51.552;9.874;2023-12-20T07:27:16;9.65;;;3.38;;
13795;SDS011;40911;51.552;9.874;2023-12-20T07:29:37;8.05;;;3.60;;
13795;SDS011;40911;51.552;9.874;2023-12-20T07:31:59;6.03;;;3.10;;
13795;SDS011;40911;51.552;9.874;2023-12-20T07:34:21;11.48;;;3.53;;
13795;SDS011;40911;51.552;9.874;2023-12-20T07:36:44;8.23;;;3.45;;
13795;SDS011;40911;51.552;9.874;2023-12-20T07:39:05;9.50;;;3.83;;
13795;SDS011;40911;51.552;9.874;2023-12-20T07:43:49;10.88;;;3.95;;
13795;SDS011;40911;51.552;9.874;2023-12-20T07:46:10;13.38;;;4.15;;
13795;SDS011;40911;51.552;9.874;2023-12-20T07:48:32;6.88;;;3.40;;
13795;SDS011;40911;51.552;9.874;2023-12-20T07:50:54;10.20;;;3.80;;
13795;SDS011;40911;51.552;9.874;2023-12-20T07:53:17;6.57;;;3.90;;
13795;SDS011;40911;51.552;9.874;2023-12-20T07:55:39;11.50;;;3.83;;
13795;SDS011;40911;51.552;9.874;2023-12-20T07:58:00;10.35;;;4.00;;
13795;SDS011;40911;51.552;9.874;2023-12-20T08:00:22;10.30;;;3.72;;
13795;SDS011;40911;51.552;9.874;2023-12-20T08:02:44;14.27;;;3.97;;
13795;SDS011;40911;51.552;9.874;2023-12-20T08:05:06;7.43;;;3.75;;
13795;SDS011;40911;51.552;9.874;2023-12-20T08:07:28;11.57;;;4.22;;
13795;SDS011;40911;51.552;9.874;2023-12-20T08:09:51;10.40;;;4.10;;
13795;SDS011;40911;51.552;9.874;2023-12-20T08:12:14;8.32;;;4.70;;
13795;SDS011;40911;51.552;9.874;2023-12-20T08:14:37;12.93;;;4.50;;
13795;SDS011;40911;51.552;9.874;2023-12-20T08:16:58;6.05;;;3.92;;
13795;SDS011;40911;51.552;9.874;2023-12-20T08:19:20;15.02;;;4.38;;
13795;SDS011;40911;51.552;9.874;2023-12-20T08:21:41;10.95;;;3.80;;
13795;SDS011;40911;51.552;9.874;2023-12-20T08:24:03;9.48;;;3.75;;
13795;SDS011;40911;51.552;9.874;2023-12-20T08:26:26;8.40;;;4.45;;
13795;SDS011;40911;51.552;9.874;2023-12-20T08:28:48;11.20;;;4.03;;
13795;SDS011;40911;51.552;9.874;2023-12-20T08:33:34;10.88;;;4.25;;
13795;SDS011;40911;51.552;9.874;2023-12-20T08:35:56;12.05;;;3.97;;
13795;SDS011;40911;51.552;9.874;2023-12-20T08:40:39;17.63;;;4.00;;
13795;SDS011;40911;51.552;9.874;2023-12-20T08:43:03;10.88;;;4.53;;
13795;SDS011;40911;51.552;9.874;2023-12-20T08:45:24;15.77;;;4.85;;
13795;SDS011;40911;51.552;9.874;2023-12-20T08:47:46;9.57;;;4.10;;
13795;SDS011;40911;51.552;9.874;2023-12-20T08:50:08;13.50;;;3.83;;
13795;SDS011;40911;51.552;9.874;2023-12-20T08:54:51;11.68;;;4.32;;
13795;SDS011;40911;51.552;9.874;2023-12-20T08:57:13;11.35;;;4.00;;
13795;SDS011;40911;51.552;9.874;2023-12-20T08:59:36;9.55;;;3.75;;
13795;SDS011;40911;51.552;9.874;2023-12-20T09:01:58;10.32;;;4.10;;
13795;SDS011;40911;51.552;9.874;2023-12-20T09:04:19;18.20;;;4.10;;
13795;SDS011;40911;51.552;9.874;2023-12-20T09:06:41;12.07;;;4.25;;
13795;SDS011;40911;51.552;9.874;2023-12-20T09:09:04;11.93;;;4.13;;
13795;SDS011;40911;51.552;9.874;2023-12-20T09:11:26;16.60;;;4.00;;
13795;SDS011;40911;51.552;9.874;2023-12-20T09:13:47;12.07;;;4.22;;
13795;SDS011;40911;51.552;9.874;2023-12-20T09:16:10;12.73;;;4.28;;
13795;SDS011;40911;51.552;9.874;2023-12-20T09:18:33;13.05;;;3.95;;
13795;SDS011;40911;51.552;9.874;2023-12-20T09:20:54;8.43;;;4.18;;
13795;SDS011;40911;51.552;9.874;2023-12-20T09:23:16;8.18;;;4.55;;
13795;SDS011;40911;51.552;9.874;2023-12-20T09:25:38;8.55;;;3.55;;
13795;SDS011;40911;51.552;9.874;2023-12-20T09:30:21;5.50;;;3.75;;
13795;SDS011;40911;51.552;9.874;2023-12-20T09:32:43;8.67;;;3.47;;
13795;SDS011;40911;51.552;9.874;2023-12-20T09:35:06;4.70;;;3.50;;
13795;SDS011;40911;51.552;9.874;2023-12-20T09:37:28;12.13;;;3.80;;
13795;SDS011;40911;51.552;9.874;2023-12-20T09:39:50;11.80;;;3.65;;
13795;SDS011;40911;51.552;9.874;2023-12-20T09:44:39;8.20;;;3.20;;
13795;SDS011;40911;51.552;9.874;2023-12-20T09:47:03;12.10;;;3.63;;
13795;SDS011;40911;51.552;9.874;2023-12-20T09:49:27;9.70;;;3.38;;
13795;SDS011;40911;51.552;9.874;2023-12-20T09:51:49;6.13;;;3.50;;
13795;SDS011;40911;51.552;9.874;2023-12-20T09:54:12;9.38;;;3.50;;
13795;SDS011;40911;51.552;9.874;2023-12-20T09:56:35;7.05;;;3.22;;
13795;SDS011;40911;51.552;9.874;2023-12-20T09:58:59;8.80;;;4.93;;
13795;SDS011;40911;51.552;9.874;2023-12-20T10:01:21;8.70;;;3.88;;
13795;SDS011;40911;51.552;9.874;2023-12-20T10:03:43;12.45;;;3.95;;
13795;SDS011;40911;51.552;9.874;2023-12-20T10:06:06;13.98;;;6.05;;
13795;SDS011;40911;51.552;9.874;2023-12-20T10:08:28;8.35;;;4.10;;
13795;SDS011;40911;51.552;9.874;2023-12-20T10:13:12;7.35;;;3.85;;
13795;SDS011;40911;51.552;9.874;2023-12-20T10:17:56;13.25;;;4.13;;
13795;SDS011;40911;51.552;9.874;2023-12-20T10:20:18;9.13;;;3.35;;
13795;SDS011;40911;51.552;9.874;2023-12-20T10:22:41;9.43;;;3.78;;
13795;SDS011;40911;51.552;9.874;2023-12-20T10:25:03;7.07;;;3.00;;
13795;SDS011;40911;51.552;9.874;2023-12-20T10:27:25;13.00;;;3.70;;
13795;SDS011;40911;51.552;9.874;2023-12-20T10:29:47;6.38;;;3.67;;
13795;SDS011;40911;51.552;9.874;2023-12-20T10:32:21;11.93;;;4.13;;
13795;SDS011;40911;51.552;9.874;2023-12-20T10:34:44;10.40;;;4.45;;
13795;SDS011;40911;51.552;9.874;2023-12-20T10:37:06;9.30;;;3.70;;
13795;SDS011;40911;51.552;9.874;2023-12-20T10:39:29;10.60;;;3.80;;
13795;SDS011;40911;51.552;9.874;2023-12-20T10:41:52;5.82;;;3.20;;
13795;SDS011;40911;51.552;9.874;2023-12-20T10:44:13;5.97;;;3.30;;
13795;SDS011;40911;51.552;9.874;2023-12-20T10:46:36;13.30;;;3.65;;
13795;SDS011;40911;51.552;9.874;2023-12-20T10:49:00;5.50;;;3.28;;
13795;SDS011;40911;51.552;9.874;2023-12-20T10:51:24;4.00;;;2.88;;
13795;SDS011;40911;51.552;9.874;2023-12-20T10:53:47;8.10;;;3.45;;
13795;SDS011;40911;51.552;9.874;2023-12-20T10:56:15;8.07;;;3.78;;
13795;SDS011;40911;51.552;9.874;2023-12-20T10:58:37;9.05;;;3.65;;
13795;SDS011;40911;51.552;9.874;2023-12-20T11:01:03;5.90;;;3.55;;
13795;SDS011;40911;51.552;9.874;2023-12-20T11:03:25;5.80;;;3.28;;
13795;SDS011;40911;51.552;9.874;2023-12-20T11:05:50;10.50;;;3.38;;
13795;SDS011;40911;51.552;9.874;2023-12-20T11:08:17;8.15;;;3.50;;
13795;SDS011;40911;51.552;9.874;2023-12-20T11:10:43;5.85;;;3.38;;
13795;SDS011;40911;51.552;9.874;2023-12-20T11:13:15;11.60;;;3.75;;
13795;SDS011;40911;51.552;9.874;2023-12-20T11:15:41;8.30;;;3.38;;
13795;SDS011;40911;51.552;9.874;2023-12-20T11:18:04;7.03;;;3.10;;
13795;SDS011;40911;51.552;9.874;2023-12-20T11:20:35;10.02;;;3.40;;
13795;SDS011;40911;51.552;9.874;2023-12-20T11:22:58;4.97;;;3.17;;
13795;SDS011;40911;51.552;9.874;2023-12-20T11:25:20;4.05;;;3.15;;
13795;SDS011;40911;51.552;9.874;2023-12-20T11:27:42;4.93;;;3.22;;
13795;SDS011;40911;51.552;9.874;2023-12-20T11:30:06;4.60;;;3.28;;
13795;SDS011;40911;51.552;9.874;2023-12-20T11:32:30;4.80;;;2.95;;
13795;SDS011;40911;51.552;9.874;2023-12-20T11:34:51;5.63;;;3.67;;
13795;SDS011;40911;51.552;9.874;2023-12-20T11:37:15;3.72;;;3.17;;
13795;SDS011;40911;51.552;9.874;2023-12-20T11:42:04;6.95;;;3.92;;
13795;SDS011;40911;51.552;9.874;2023-12-20T11:44:27;9.73;;;3.35;;
13795;SDS011;40911;51.552;9.874;2023-12-20T11:46:54;5.70;;;3.17;;
13795;SDS011;40911;51.552;9.874;2023-12-20T11:49:16;6.43;;;3.88;;
13795;SDS011;40911;51.552;9.874;2023-12-20T11:51:40;5.85;;;3.20;;
13795;SDS011;40911;51.552;9.874;2023-12-20T11:54:02;7.18;;;3.22;;
13795;SDS011;40911;51.552;9.874;2023-12-20T11:56:24;6.90;;;3.05;;
13795;SDS011;40911;51.552;9.874;2023-12-20T11:58:45;5.93;;;3.17;;
13795;SDS011;40911;51.552;9.874;2023-12-20T12:01:08;5.97;;;2.92;;
13795;SDS011;40911;51.552;9.874;2023-12-20T12:05:53;4.40;;;2.90;;
13795;SDS011;40911;51.552;9.874;2023-12-20T12:08:15;5.47;;;3.20;;
13795;SDS011;40911;51.552;9.874;2023-12-20T12:10:38;4.65;;;3.60;;
13795;SDS011;40911;51.552;9.874;2023-12-20T12:12:59;5.95;;;3.50;;
13795;SDS011;40911;51.552;9.874;2023-12-20T12:15:22;7.75;;;3.50;;
13795;SDS011;40911;51.552;9.874;2023-12-20T12:17:43;5.50;;;3.60;;
13795;SDS011;40911;51.552;9.874;2023-12-20T12:20:07;9.38;;;3.50;;
13795;SDS011;40911;51.552;9.874;2023-12-20T12:22:30;8.98;;;3.20;;
13795;SDS011;40911;51.552;9.874;2023-12-20T12:24:52;7.97;;;4.07;;
13795;SDS011;40911;51.552;9.874;2023-12-20T12:27:14;4.72;;;3.20;;
13795;SDS011;40911;51.552;9.874;2023-12-20T12:29:37;5.45;;;3.40;;
13795;SDS011;40911;51.552;9.874;2023-12-20T12:32:02;7.05;;;3.38;;
13795;SDS011;40911;51.552;9.874;2023-12-20T12:34:27;6.88;;;3.90;;
13795;SDS011;40911;51.552;9.874;2023-12-20T12:36:50;8.20;;;4.03;;
13795;SDS011;40911;51.552;9.874;2023-12-20T12:39:12;7.18;;;3.45;;
13795;SDS011;40911;51.552;9.874;2023-12-20T12:41:35;5.28;;;3.45;;
13795;SDS011;40911;51.552;9.874;2023-12-20T12:46:18;5.10;;;3.28;;
13795;SDS011;40911;51.552;9.874;2023-12-20T12:48:40;5.75;;;3.17;;
13795;SDS011;40911;51.552;9.874;2023-12-20T12:51:01;5.88;;;3.65;;
13795;SDS011;40911;51.552;9.874;2023-12-20T12:53:24;7.82;;;3.70;;
13795;SDS011;40911;51.552;9.874;2023-12-20T12:55:47;3.78;;;3.42;;
13795;SDS011;40911;51.552;9.874;2023-12-20T12:58:08;5.00;;;3.03;;
13795;SDS011;40911;51.552;9.874;2023-12-20T13:00:30;8.80;;;3.60;;
13795;SDS011;40911;51.552;9.874;2023-12-20T13:02:51;7.20;;;3.40;;
13795;SDS011;40911;51.552;9.874;2023-12-20T13:05:13;7.70;;;3.47;;
13795;SDS011;40911;51.552;9.874;2023-12-20T13:09:59;6.68;;;3.65;;
13795;SDS011;40911;51.552;9.874;2023-12-20T13:12:20;6.30;;;3.38;;
13795;SDS011;40911;51.552;9.874;2023-12-20T13:14:42;10.68;;;3.55;;
13795;SDS011;40911;51.552;9.874;2023-12-20T13:17:04;5.03;;;3.47;;
13795;SDS011;40911;51.552;9.874;2023-12-20T13:19:26;7.95;;;3.40;;
13795;SDS011;40911;51.552;9.874;2023-12-20T13:24:10;10.35;;;3.85;;
13795;SDS011;40911;51.552;9.874;2023-12-20T13:26:33;5.30;;;4.20;;
13795;SDS011;40911;51.552;9.874;2023-12-20T13:28:54;10.90;;;4.50;;
13795;SDS011;40911;51.552;9.874;2023-12-20T13:33:37;9.10;;;3.75;;
13795;SDS011;40911;51.552;9.874;2023-12-20T13:36:00;10.90;;;4.40;;
13795;SDS011;40911;51.552;9.874;2023-12-20T13:38:22;6.68;;;3.88;;
13795;SDS011;40911;51.552;9.874;2023-12-20T13:40:44;6.75;;;3.80;;
13795;SDS011;40911;51.552;9.874;2023-12-20T13:45:28;8.23;;;4.03;;
13795;SDS011;40911;51.552;9.874;2023-12-20T13:47:50;8.98;;;4.68;;
13795;SDS011;40911;51.552;9.874;2023-12-20T13:50:11;11.02;;;4.43;;
13795;SDS011;40911;51.552;9.874;2023-12-20T13:52:33;8.30;;;5.22;;
13795;SDS011;40911;51.552;9.874;2023-12-20T13:54:55;9.23;;;4.05;;
13795;SDS011;40911;51.552;9.874;2023-12-20T13:57:17;12.75;;;5.05;;
13795;SDS011;40911;51.552;9.874;2023-12-20T13:59:40;10.73;;;4.85;;
13795;SDS011;40911;51.552;9.874;2023-12-20T14:02:01;8.45;;;4.90;;
13795;SDS011;40911;51.552;9.874;2023-12-20T14:04:24;10.27;;;4.25;;
13795;SDS011;40911;51.552;9.874;2023-12-20T14:06:45;7.15;;;4.00;;
13795;SDS011;40911;51.552;9.874;2023-12-20T14:09:07;9.65;;;4.45;;
13795;SDS011;40911;51.552;9.874;2023-12-20T14:11:29;8.95;;;4.30;;
13795;SDS011;40911;51.552;9.874;2023-12-20T14:16:13;11.68;;;4.32;;
13795;SDS011;40911;51.552;9.874;2023-12-20T14:18:36;7.07;;;4.43;;
13795;SDS011;40911;51.552;9.874;2023-12-20T14:21:00;9.80;;;4.20;;
13795;SDS011;40911;51.552;9.874;2023-12-20T14:23:21;8.77;;;4.10;;
13795;SDS011;40911;51.552;9.874;2023-12-20T14:25:43;5.70;;;4.28;;
13795;SDS011;40911;51.552;9.874;2023-12-20T14:28:05;8.75;;;4.07;;
13795;SDS011;40911;51.552;9.874;2023-12-20T14:32:50;11.88;;;3.88;;
13795;SDS011;40911;51.552;9.874;2023-12-20T14:35:11;13.45;;;4.07;;
13795;SDS011;40911;51.552;9.874;2023-12-20T14:37:33;8.10;;;4.90;;
13795;SDS011;40911;51.552;9.874;2023-12-20T14:42:15;8.55;;;3.88;;
13795;SDS011;40911;51.552;9.874;2023-12-20T14:44:37;7.65;;;3.85;;
13795;SDS011;40911;51.552;9.874;2023-12-20T14:46:58;11.38;;;4.20;;
13795;SDS011;40911;51.552;9.874;2023-12-20T14:49:23;8.80;;;4.65;;
13795;SDS011;40911;51.552;9.874;2023-12-20T14:51:45;9.02;;;4.00;;
13795;SDS011;40911;51.552;9.874;2023-12-20T14:54:07;5.93;;;3.67;;
13795;SDS011;40911;51.552;9.874;2023-12-20T14:56:30;10.80;;;5.85;;
13795;SDS011;40911;51.552;9.874;2023-12-20T14:58:52;6.97;;;4.00;;
13795;SDS011;40911;51.552;9.874;2023-12-20T15:01:14;8.50;;;3.88;;
13795;SDS011;40911;51.552;9.874;2023-12-20T15:03:35;6.88;;;3.63;;
13795;SDS011;40911;51.552;9.874;2023-12-20T15:08:20;10.40;;;3.63;;
13795;SDS011;40911;51.552;9.874;2023-12-20T15:10:42;11.02;;;4.75;;
13795;SDS011;40911;51.552;9.874;2023-12-20T15:13:04;10.40;;;5.65;;
13795;SDS011;40911;51.552;9.874;2023-12-20T15:15:26;7.50;;;3.50;;
13795;SDS011;40911;51.552;9.874;2023-12-20T15:17:49;7.60;;;4.65;;
13795;SDS011;40911;51.552;9.874;2023-12-20T15:22:33;6.90;;;4.28;;
13795;SDS011;40911;51.552;9.874;2023-12-20T15:24:55;6.72;;;3.63;;
13795;SDS011;40911;51.552;9.874;2023-12-20T15:29:38;6.00;;;3.60;;
13795;SDS011;40911;51.552;9.874;2023-12-20T15:32:00;6.18;;;3.50;;
13795;SDS011;40911;51.552;9.874;2023-12-20T15:34:22;9.43;;;3.35;;